Terminal Aerodrome Forecast
Issued by NWS

Home | Current Version | Previous Version | Text Only | Print | Product List | Glossary On
Versions: 1 2 3 4 5 6 7 8 9 10 11 12 13 14 15 16 17 18 19 20 21 22
000
FTUS45 KGJT 252338
TAFMTJ
TAF
KMTJ 252338Z 2600/2624 32010KT P6SM VCSH SCT050 BKN080
      TEMPO 2605/2608 5SM -SHSN BR OVC040
     FM260800 32006KT 2SM -SN BR OVC015
     FM261200 VRB03KT 3SM -SHSN BR OVC025
     FM261900 33006KT P6SM VCSH SCT015 OVC040=

USA.gov is the U.S. government's official web portal to all federal, state and local government web resources and services.